Time;durP1;ratioP1;P1;durP2;ratioP2;P2;SDS_P1;SDS_P2;PMS_P1;PMS_P2;Temp;Humidity;BMP_temperature;BMP_pressure;BME280_temperature;BME280_humidity;BME280_pressure;Samples;Min_cycle;Max_cycle;Signal;HPM_P1;HPM_P2
2022/08/03 00:01:30;;;;;;;0.00;0.00;;;19.80;99.90;;;;;;5070670;28;20132;-79
2022/08/03 00:03:55;;;;;;;0.00;0.00;;;19.70;99.90;;;;;;5087830;28;20081;-79
2022/08/03 00:06:21;;;;;;;0.00;0.00;;;19.70;99.90;;;;;;5053549;28;20057;-79
2022/08/03 00:08:48;;;;;;;0.00;0.00;;;19.70;99.90;;;;;;5087650;28;20036;-79
2022/08/03 00:11:13;;;;;;;0.00;0.00;;;19.60;99.90;;;;;;5087207;28;20045;-79
2022/08/03 00:13:39;;;;;;;0.00;0.00;;;19.60;99.90;;;;;;5070949;28;20535;-79
2022/08/03 00:16:05;;;;;;;0.00;0.00;;;19.60;99.90;;;;;;5070506;28;20063;-79
2022/08/03 00:18:30;;;;;;;0.00;0.00;;;19.50;99.90;;;;;;5087143;28;20589;-79
2022/08/03 00:20:56;;;;;;;0.00;0.00;;;19.50;99.90;;;;;;5087427;28;20080;-79
2022/08/03 00:23:22;;;;;;;0.00;0.00;;;19.40;99.90;;;;;;5087312;28;20041;-79
2022/08/03 00:25:47;;;;;;;0.00;0.00;;;19.40;99.90;;;;;;5087329;28;20151;-79
2022/08/03 00:28:13;;;;;;;0.00;0.00;;;19.40;99.90;;;;;;5087549;28;20041;-79
2022/08/03 00:30:38;;;;;;;0.10;0.10;;;19.40;99.90;;;;;;5087182;28;20076;-79
2022/08/03 00:33:04;;;;;;;0.10;0.00;;;19.40;99.90;;;;;;5087405;28;20088;-79
2022/08/03 00:35:30;;;;;;;0.00;0.00;;;19.40;99.90;;;;;;5087583;28;20037;-79
2022/08/03 00:37:57;;;;;;;0.00;0.00;;;19.40;99.90;;;;;;5086513;28;20439;-79
2022/08/03 00:40:23;;;;;;;1.55;0.20;;;19.40;99.90;;;;;;5070313;28;20074;-79
2022/08/03 00:42:52;;;;;;;0.00;0.00;;;19.40;99.90;;;;;;5086940;28;20393;-79
2022/08/03 00:45:20;;;;;;;0.00;0.00;;;19.40;99.90;;;;;;5087589;28;20056;-78
2022/08/03 00:47:46;;;;;;;0.10;0.10;;;19.40;99.90;;;;;;5087102;28;20477;-78
2022/08/03 00:50:12;;;;;;;0.00;0.00;;;19.40;99.90;;;;;;5071495;28;20057;-79
2022/08/03 00:52:38;;;;;;;0.00;0.00;;;19.40;99.90;;;;;;5087532;28;20041;-79
2022/08/03 00:55:04;;;;;;;0.00;0.00;;;19.40;99.90;;;;;;5069899;28;20060;-78
2022/08/03 00:57:31;;;;;;;0.00;0.00;;;19.40;99.90;;;;;;5086857;28;20048;-78
2022/08/03 00:59:58;;;;;;;1.23;0.20;;;19.40;99.90;;;;;;5069545;28;20045;-78
2022/08/03 01:02:25;;;;;;;0.00;0.00;;;19.40;99.90;;;;;;5070294;28;20045;-78
2022/08/03 01:04:52;;;;;;;0.00;0.00;;;19.40;99.90;;;;;;5086622;28;20049;-78
2022/08/03 01:07:51;;;;;;;2.45;0.65;;;19.40;99.90;;;;;;5069273;28;20136;-79
2022/08/03 01:10:39;;;;;;;1.45;0.38;;;19.40;99.90;;;;;;5086702;28;20111;-79
2022/08/03 01:13:33;;;;;;;0.00;0.00;;;19.40;99.90;;;;;;5086871;28;20132;-79
2022/08/03 01:16:08;;;;;;;0.75;0.32;;;19.40;99.90;;;;;;5069787;28;20049;-79
2022/08/03 01:18:51;;;;;;;0.32;0.25;;;19.40;99.90;;;;;;5070442;28;20044;-79
2022/08/03 01:21:49;;;;;;;0.00;0.00;;;19.40;99.90;;;;;;5037181;28;20173;-79
2022/08/03 01:24:43;;;;;;;0.10;0.00;;;19.40;99.90;;;;;;5069969;28;20091;-79
2022/08/03 01:27:17;;;;;;;0.10;0.10;;;19.40;99.90;;;;;;5069768;28;20049;-79
2022/08/03 01:29:57;;;;;;;2.80;0.45;;;19.40;99.90;;;;;;5070098;28;20128;-79
2022/08/03 01:32:32;;;;;;;0.85;0.43;;;19.40;99.90;;;;;;5069994;28;20049;-79
2022/08/03 01:35:07;;;;;;;0.00;0.00;;;19.40;99.90;;;;;;5086872;28;20079;-79
2022/08/03 01:37:41;;;;;;;1.70;0.20;;;19.40;99.90;;;;;;5086777;28;20048;-79
2022/08/03 01:40:09;;;;;;;0.00;0.00;;;19.40;99.90;;;;;;5086568;28;20127;-79
2022/08/03 01:42:36;;;;;;;0.00;0.00;;;19.40;99.90;;;;;;5069723;28;20057;-79
2022/08/03 01:45:04;;;;;;;0.25;0.25;;;19.40;99.90;;;;;;5069329;28;20374;-79
2022/08/03 01:47:30;;;;;;;0.10;0.10;;;19.40;99.90;;;;;;5086199;28;20052;-79
2022/08/03 01:49:57;;;;;;;3.90;0.70;;;19.40;99.90;;;;;;5088763;28;20066;-79
2022/08/03 01:52:24;;;;;;;0.10;0.10;;;19.40;99.90;;;;;;5089993;28;20056;-78
2022/08/03 01:54:51;;;;;;;0.00;0.00;;;19.40;99.90;;;;;;5090059;28;20048;-78
2022/08/03 01:57:18;;;;;;;0.00;0.00;;;19.40;99.90;;;;;;5090103;28;20045;-78
2022/08/03 01:59:47;;;;;;;0.00;0.00;;;19.40;99.90;;;;;;5089334;28;20052;-79
2022/08/03 02:02:15;;;;;;;0.00;0.00;;;19.40;99.90;;;;;;5090017;28;20570;-79
2022/08/03 02:04:44;;;;;;;0.00;0.00;;;19.40;99.90;;;;;;5073155;28;20056;-79
2022/08/03 02:07:11;;;;;;;0.00;0.00;;;19.30;99.90;;;;;;5089598;28;20392;-79
2022/08/03 02:09:38;;;;;;;0.00;0.00;;;19.30;99.90;;;;;;5073036;28;20049;-79
2022/08/03 02:12:09;;;;;;;0.00;0.00;;;19.30;99.90;;;;;;5072748;28;20060;-79
2022/08/03 02:14:37;;;;;;;0.20;0.00;;;19.20;99.90;;;;;;5089472;28;20081;-79
2022/08/03 02:17:05;;;;;;;0.00;0.00;;;19.20;99.90;;;;;;5089709;28;20049;-78
2022/08/03 02:19:33;;;;;;;0.00;0.00;;;19.10;99.90;;;;;;5072581;28;20044;-78
2022/08/03 02:22:00;;;;;;;1.08;0.28;;;19.10;99.90;;;;;;5072816;28;20118;-78
2022/08/03 02:24:26;;;;;;;0.00;0.00;;;19.10;99.90;;;;;;5089473;28;20049;-78
2022/08/03 02:26:54;;;;;;;0.00;0.00;;;19.10;99.90;;;;;;5072475;28;20056;-79
2022/08/03 02:29:23;;;;;;;0.00;0.00;;;19.10;99.90;;;;;;5090125;28;20370;-79
2022/08/03 02:31:51;;;;;;;0.00;0.00;;;19.00;99.90;;;;;;5089280;28;20045;-79
2022/08/03 02:34:20;;;;;;;0.00;0.00;;;19.00;99.90;;;;;;5072593;28;20060;-78
2022/08/03 02:36:48;;;;;;;0.35;0.10;;;19.00;99.90;;;;;;5072397;28;20092;-78
2022/08/03 02:39:19;;;;;;;0.00;0.00;;;19.00;99.90;;;;;;5089358;28;20049;-79
2022/08/03 02:41:48;;;;;;;0.00;0.00;;;18.90;99.90;;;;;;5089458;28;20048;-78
2022/08/03 02:44:20;;;;;;;0.00;0.00;;;18.90;99.90;;;;;;5072486;28;20061;-78
2022/08/03 02:46:48;;;;;;;0.00;0.00;;;18.90;99.90;;;;;;5072627;28;20049;-78
2022/08/03 02:49:17;;;;;;;0.00;0.00;;;18.90;99.90;;;;;;5089266;28;20508;-78
2022/08/03 02:51:44;;;;;;;0.00;0.00;;;18.90;99.90;;;;;;5088891;28;20041;-78
2022/08/03 02:54:13;;;;;;;1.08;0.25;;;18.90;99.90;;;;;;5072165;28;20048;-78
2022/08/03 02:56:40;;;;;;;0.00;0.00;;;18.80;99.90;;;;;;5089024;28;20049;-78
2022/08/03 02:59:07;;;;;;;0.00;0.00;;;18.80;99.90;;;;;;5089037;28;20045;-78
2022/08/03 03:01:33;;;;;;;0.00;0.00;;;18.80;99.90;;;;;;5088305;28;20067;-78
2022/08/03 03:03:59;;;;;;;0.10;0.00;;;18.80;99.90;;;;;;5089262;28;20041;-78
2022/08/03 03:06:26;;;;;;;0.30;0.00;;;18.80;99.90;;;;;;5072440;28;20053;-78
2022/08/03 03:08:53;;;;;;;0.00;0.00;;;18.80;99.90;;;;;;5088775;28;20166;-78
2022/08/03 03:11:20;;;;;;;0.00;0.00;;;18.80;99.90;;;;;;5071680;28;20041;-78
2022/08/03 03:13:48;;;;;;;0.00;0.00;;;18.80;99.90;;;;;;5071857;28;20139;-78
2022/08/03 03:16:14;;;;;;;0.20;0.10;;;18.80;99.90;;;;;;5071774;28;20226;-78
2022/08/03 03:18:43;;;;;;;0.10;0.10;;;18.70;99.90;;;;;;5072176;28;20063;-78
2022/08/03 03:21:10;;;;;;;0.00;0.00;;;18.70;99.90;;;;;;5088661;28;20048;-78
2022/08/03 03:23:38;;;;;;;0.13;0.13;;;18.70;99.90;;;;;;5088594;28;20041;-78
2022/08/03 03:26:04;;;;;;;0.00;0.00;;;18.70;99.90;;;;;;5088810;28;20518;-78
2022/08/03 03:28:31;;;;;;;0.00;0.00;;;18.70;99.90;;;;;;5087966;28;20072;-78
2022/08/03 03:30:57;;;;;;;0.00;0.00;;;18.70;99.90;;;;;;5088246;28;20052;-78
2022/08/03 03:33:24;;;;;;;0.10;0.10;;;18.60;99.90;;;;;;5088177;28;20048;-78
2022/08/03 03:35:50;;;;;;;0.00;0.00;;;18.70;99.90;;;;;;5088539;28;20128;-78
2022/08/03 03:38:16;;;;;;;0.68;0.20;;;18.60;99.90;;;;;;5088169;28;20099;-78
2022/08/03 03:40:43;;;;;;;0.00;0.00;;;18.60;99.90;;;;;;5071825;28;20041;-78
2022/08/03 03:43:09;;;;;;;0.00;0.00;;;18.60;99.90;;;;;;5088517;28;20041;-78
2022/08/03 03:45:36;;;;;;;0.00;0.00;;;18.60;99.90;;;;;;5070936;28;20060;-78
2022/08/03 03:48:06;;;;;;;0.10;0.10;;;18.60;99.90;;;;;;5071094;28;20400;-78
2022/08/03 03:50:34;;;;;;;0.00;0.00;;;18.50;99.90;;;;;;5070559;28;20132;-78
2022/08/03 03:53:00;;;;;;;0.00;0.00;;;18.60;99.90;;;;;;5087677;28;20045;-78
2022/08/03 03:55:26;;;;;;;1.15;0.55;;;18.50;99.90;;;;;;5070746;28;20102;-78
2022/08/03 03:57:52;;;;;;;0.00;0.00;;;18.50;99.90;;;;;;5087593;28;20481;-78
2022/08/03 04:00:18;;;;;;;0.00;0.00;;;18.50;99.90;;;;;;5087453;28;20045;-78
2022/08/03 04:02:44;;;;;;;0.00;0.00;;;18.50;99.90;;;;;;5070957;28;20048;-78
2022/08/03 04:11:21;;;;;;;0.00;0.00;;;18.60;99.90;;;;;;5087105;28;20398;-77
2022/08/03 04:14:10;;;;;;;0.00;0.00;;;18.60;99.90;;;;;;5070918;28;20091;-77
2022/08/03 04:16:46;;;;;;;0.00;0.00;;;18.60;99.90;;;;;;5087366;28;20049;-77
2022/08/03 04:19:17;;;;;;;0.00;0.00;;;18.60;99.90;;;;;;5087259;28;20110;-78
2022/08/03 04:21:45;;;;;;;0.00;0.00;;;18.60;99.90;;;;;;5070391;28;20106;-78
2022/08/03 04:24:13;;;;;;;0.80;0.32;;;18.60;99.90;;;;;;5070141;28;20477;-77
2022/08/03 04:26:41;;;;;;;0.00;0.00;;;18.70;99.90;;;;;;5070545;28;20139;-77
2022/08/03 04:29:10;;;;;;;0.10;0.00;;;18.70;99.90;;;;;;5087517;28;20049;-77
2022/08/03 04:31:37;;;;;;;0.00;0.00;;;18.70;99.90;;;;;;5086419;28;20045;-77
2022/08/03 04:34:03;;;;;;;9.43;0.43;;;18.80;99.90;;;;;;5070218;28;20059;-77
2022/08/03 04:36:32;;;;;;;0.00;0.00;;;18.80;99.90;;;;;;5086988;28;20056;-77
2022/08/03 04:39:03;;;;;;;0.32;0.32;;;18.90;99.90;;;;;;5070560;28;20057;-77
2022/08/03 04:41:30;;;;;;;0.00;0.00;;;18.80;99.90;;;;;;5087138;28;20416;-77
2022/08/03 04:43:57;;;;;;;0.70;0.22;;;18.80;99.90;;;;;;5069922;28;20623;-77
2022/08/03 04:46:34;;;;;;;0.00;0.00;;;18.90;99.90;;;;;;5086751;28;20057;-77
2022/08/03 04:49:00;;;;;;;0.00;0.00;;;18.90;99.90;;;;;;5070198;28;20060;-77
2022/08/03 04:51:27;;;;;;;1.55;0.45;;;18.90;99.90;;;;;;5053014;28;20079;-77
2022/08/03 04:53:53;;;;;;;0.15;0.15;;;18.90;99.90;;;;;;5036536;28;20044;-77
2022/08/03 04:56:18;;;;;;;0.00;0.00;;;18.90;99.90;;;;;;5086815;28;20090;-77
2022/08/03 04:58:44;;;;;;;0.03;0.00;;;18.90;99.90;;;;;;5053101;28;20079;-78
2022/08/03 05:01:10;;;;;;;0.10;0.10;;;18.80;99.90;;;;;;5087345;28;20045;-77
2022/08/03 05:03:36;;;;;;;0.00;0.00;;;18.90;99.90;;;;;;5070113;28;20064;-77
2022/08/03 05:06:01;;;;;;;0.00;0.00;;;18.90;99.90;;;;;;5086555;28;20439;-78
2022/08/03 05:08:27;;;;;;;0.00;0.00;;;18.90;99.90;;;;;;5070036;28;20068;-78
2022/08/03 05:10:56;;;;;;;0.00;0.00;;;18.90;99.90;;;;;;5086138;28;20048;-78
2022/08/03 05:13:21;;;;;;;0.08;0.08;;;18.90;99.90;;;;;;5070059;28;20065;-78
2022/08/03 05:15:48;;;;;;;0.00;0.00;;;18.90;99.90;;;;;;5086499;28;20378;-77
2022/08/03 05:18:14;;;;;;;0.00;0.00;;;18.90;99.90;;;;;;5086531;28;20392;-77
2022/08/03 05:20:39;;;;;;;0.00;0.00;;;19.00;99.90;;;;;;5069630;28;20041;-77
2022/08/03 05:23:05;;;;;;;0.00;0.00;;;19.00;99.90;;;;;;5070551;28;20088;-78
2022/08/03 05:25:30;;;;;;;0.00;0.00;;;19.00;99.90;;;;;;5090951;28;20106;-78
2022/08/03 05:27:56;;;;;;;0.25;0.25;;;19.10;99.90;;;;;;5090653;28;20409;-78
2022/08/03 05:30:22;;;;;;;0.00;0.00;;;19.10;99.90;;;;;;5057233;28;20048;-78
2022/08/03 05:32:47;;;;;;;0.00;0.00;;;19.10;99.90;;;;;;5090663;28;20037;-78
2022/08/03 05:35:13;;;;;;;4.03;0.55;;;19.20;99.90;;;;;;5074235;28;20088;-78
2022/08/03 05:37:39;;;;;;;0.10;0.08;;;19.20;99.90;;;;;;5073546;28;20049;-78
2022/08/03 05:40:05;;;;;;;0.00;0.00;;;19.20;99.90;;;;;;5090495;28;20048;-78
2022/08/03 05:42:30;;;;;;;0.05;0.05;;;19.20;99.90;;;;;;5090447;28;20102;-78
2022/08/03 05:44:56;;;;;;;0.00;0.00;;;19.30;99.90;;;;;;5090516;28;20048;-78
2022/08/03 05:47:22;;;;;;;0.03;0.00;;;19.30;99.90;;;;;;5056894;28;20060;-78
2022/08/03 05:49:48;;;;;;;0.03;0.03;;;19.30;99.90;;;;;;5090507;28;20037;-78
2022/08/03 05:52:13;;;;;;;0.80;0.15;;;19.40;99.90;;;;;;5073703;28;20489;-78
2022/08/03 05:54:39;;;;;;;0.70;0.17;;;19.40;99.90;;;;;;5073827;28;20041;-78
2022/08/03 05:57:05;;;;;;;0.00;0.00;;;19.50;99.90;;;;;;5090390;28;20049;-78
2022/08/03 05:59:30;;;;;;;0.10;0.00;;;19.50;99.90;;;;;;5090033;28;20520;-78
2022/08/03 06:01:56;;;;;;;0.00;0.00;;;19.60;99.90;;;;;;5090195;28;20044;-78
2022/08/03 06:04:22;;;;;;;0.00;0.00;;;19.60;99.90;;;;;;5090078;28;20099;-78
2022/08/03 06:06:49;;;;;;;0.00;0.00;;;19.70;99.90;;;;;;5090357;28;20064;-78
2022/08/03 06:09:15;;;;;;;0.00;0.00;;;19.60;99.90;;;;;;5090329;28;20045;-78
2022/08/03 06:11:41;;;;;;;0.25;0.00;;;19.70;99.90;;;;;;5089891;28;20077;-79
2022/08/03 06:14:06;;;;;;;0.00;0.00;;;19.80;99.90;;;;;;5089927;28;20045;-78
2022/08/03 06:16:32;;;;;;;3.30;0.32;;;19.80;99.90;;;;;;5090084;28;20086;-79
2022/08/03 06:18:58;;;;;;;0.00;0.00;;;19.90;99.90;;;;;;5073252;28;20079;-79
2022/08/03 06:21:23;;;;;;;0.40;0.25;;;19.90;99.90;;;;;;5089827;28;20366;-79
2022/08/03 06:23:49;;;;;;;0.05;0.05;;;20.00;99.90;;;;;;5089872;28;20091;-79
2022/08/03 06:26:15;;;;;;;0.00;0.00;;;20.00;99.90;;;;;;5073081;28;20061;-79
2022/08/03 06:28:43;;;;;;;0.00;0.00;;;20.00;99.90;;;;;;5072794;28;20052;-79
2022/08/03 06:31:08;;;;;;;1.35;0.63;;;20.00;99.90;;;;;;5072946;28;20136;-79
2022/08/03 06:33:34;;;;;;;0.00;0.00;;;20.10;99.90;;;;;;5072720;28;20492;-79
2022/08/03 06:36:00;;;;;;;0.00;0.00;;;20.20;99.90;;;;;;5088043;28;20133;-79
2022/08/03 06:38:25;;;;;;;0.05;0.03;;;20.20;99.90;;;;;;5090534;28;20047;-79
2022/08/03 06:40:51;;;;;;;0.00;0.00;;;20.30;99.90;;;;;;5090190;28;20461;-79
2022/08/03 06:43:17;;;;;;;0.40;0.30;;;20.30;99.90;;;;;;5072260;28;20057;-79
2022/08/03 06:45:42;;;;;;;0.00;0.00;;;20.40;99.90;;;;;;5089271;28;20044;-79
2022/08/03 06:48:10;;;;;;;0.00;0.00;;;20.50;99.90;;;;;;5072423;28;20053;-79
2022/08/03 06:50:38;;;;;;;0.10;0.10;;;20.60;99.90;;;;;;5055699;28;20091;-79
2022/08/03 06:53:04;;;;;;;0.00;0.00;;;20.60;99.90;;;;;;5089212;28;20484;-79
2022/08/03 06:55:31;;;;;;;0.55;0.45;;;20.70;99.90;;;;;;5089155;28;20049;-79
2022/08/03 06:57:56;;;;;;;2.17;0.63;;;20.80;99.90;;;;;;5089927;28;20041;-79
2022/08/03 07:00:22;;;;;;;0.00;0.00;;;21.00;99.90;;;;;;5073103;28;20056;-79
2022/08/03 07:02:48;;;;;;;0.10;0.10;;;21.10;99.90;;;;;;5072521;28;20049;-79
2022/08/03 07:05:14;;;;;;;0.00;0.00;;;21.20;99.90;;;;;;5088847;28;20037;-79
2022/08/03 07:07:40;;;;;;;0.63;0.25;;;21.30;99.90;;;;;;5088764;28;20049;-79
2022/08/03 07:10:07;;;;;;;1.08;0.30;;;21.40;99.90;;;;;;5055230;28;20080;-79
2022/08/03 07:12:33;;;;;;;0.05;0.00;;;21.50;99.90;;;;;;5088615;28;20048;-79
2022/08/03 07:14:59;;;;;;;0.00;0.00;;;21.60;99.90;;;;;;5071853;28;20103;-79
2022/08/03 07:17:25;;;;;;;0.00;0.00;;;21.70;99.90;;;;;;5038706;28;20114;-79
2022/08/03 07:19:51;;;;;;;0.17;0.13;;;21.80;99.90;;;;;;5088773;28;20420;-79
2022/08/03 07:22:17;;;;;;;0.63;0.20;;;21.80;99.90;;;;;;5088669;28;20145;-79
2022/08/03 07:24:42;;;;;;;0.00;0.00;;;21.80;99.90;;;;;;5088214;28;20124;-79
2022/08/03 07:27:08;;;;;;;0.00;0.00;;;21.80;99.90;;;;;;5088571;28;20095;-79
2022/08/03 07:29:35;;;;;;;0.80;0.13;;;21.80;99.90;;;;;;5071587;28;20106;-79
2022/08/03 07:32:04;;;;;;;3.95;0.60;;;21.80;99.90;;;;;;5088068;28;20048;-79
2022/08/03 07:34:30;;;;;;;0.00;0.00;;;21.80;99.90;;;;;;5071885;28;20060;-79
2022/08/03 07:36:56;;;;;;;0.05;0.00;;;21.90;99.90;;;;;;5088310;28;20550;-78
2022/08/03 07:39:21;;;;;;;0.10;0.10;;;22.00;99.90;;;;;;5071113;28;20424;-78
2022/08/03 07:41:50;;;;;;;0.75;0.22;;;22.10;99.90;;;;;;5071132;28;20064;-78
2022/08/03 07:44:19;;;;;;;0.00;0.00;;;22.20;99.90;;;;;;5071301;28;20106;-78
2022/08/03 07:46:45;;;;;;;0.10;0.10;;;22.30;99.90;;;;;;5087645;28;20052;-78
2022/08/03 07:49:11;;;;;;;0.13;0.10;;;22.40;99.90;;;;;;5088050;28;20108;-79
2022/08/03 07:51:36;;;;;;;0.00;0.00;;;22.50;99.90;;;;;;5070939;28;20044;-79
2022/08/03 07:54:03;;;;;;;0.00;0.00;;;22.60;99.90;;;;;;5071090;28;20048;-79
2022/08/03 07:56:28;;;;;;;0.00;0.00;;;22.70;99.90;;;;;;5088072;28;20045;-79
2022/08/03 07:58:54;;;;;;;0.00;0.00;;;22.80;99.90;;;;;;5087838;28;20043;-79
2022/08/03 08:01:21;;;;;;;0.25;0.10;;;23.00;99.90;;;;;;5071318;28;20053;-79
2022/08/03 08:03:47;;;;;;;0.00;0.00;;;23.10;99.90;;;;;;5088197;28;20163;-79
2022/08/03 08:06:13;;;;;;;0.47;0.20;;;23.10;99.90;;;;;;5087677;28;20080;-79
2022/08/03 08:08:39;;;;;;;0.10;0.10;;;23.20;99.90;;;;;;5087886;28;20068;-79
2022/08/03 08:11:05;;;;;;;0.08;0.08;;;23.20;99.90;;;;;;5087454;28;20086;-79
2022/08/03 08:13:31;;;;;;;0.10;0.00;;;23.30;99.90;;;;;;5087375;28;20049;-79
2022/08/03 08:15:57;;;;;;;1.80;0.52;;;23.30;99.90;;;;;;5071015;28;20060;-79
2022/08/03 08:18:23;;;;;;;0.10;0.05;;;23.30;99.90;;;;;;5087317;28;20041;-79
2022/08/03 08:20:49;;;;;;;0.82;0.32;;;23.30;99.90;;;;;;5054337;28;20052;-79
2022/08/03 08:23:21;;;;;;;0.00;0.00;;;23.30;99.90;;;;;;5070663;28;20049;-79
2022/08/03 08:25:47;;;;;;;0.20;0.20;;;23.30;99.90;;;;;;5086866;28;20412;-79
2022/08/03 08:28:13;;;;;;;0.35;0.25;;;23.40;99.90;;;;;;5070634;28;20481;-79
2022/08/03 08:30:39;;;;;;;0.03;0.03;;;23.50;99.90;;;;;;5087329;28;20051;-79
2022/08/03 08:33:05;;;;;;;0.00;0.00;;;23.50;99.90;;;;;;5087282;28;20043;-80
2022/08/03 08:35:30;;;;;;;0.20;0.20;;;23.60;99.90;;;;;;5087469;28;20071;-79
2022/08/03 08:37:59;;;;;;;0.00;0.00;;;23.70;99.90;;;;;;5087793;28;20493;-80
2022/08/03 08:40:26;;;;;;;0.88;0.38;;;23.90;99.90;;;;;;5087192;28;20132;-80
2022/08/03 08:42:52;;;;;;;0.00;0.00;;;24.00;99.90;;;;;;5087284;28;20041;-80
2022/08/03 08:45:18;;;;;;;0.13;0.03;;;24.20;99.90;;;;;;5069878;28;20426;-80
2022/08/03 08:47:47;;;;;;;0.00;0.00;;;24.20;99.90;;;;;;5070029;28;20048;-80
2022/08/03 08:50:16;;;;;;;0.00;0.00;;;24.20;99.90;;;;;;5069587;28;20381;-80
2022/08/03 08:52:43;;;;;;;0.00;0.00;;;24.30;99.90;;;;;;5087048;28;20056;-80
2022/08/03 08:55:12;;;;;;;0.00;0.00;;;24.40;99.90;;;;;;5053307;28;20041;-80
2022/08/03 08:57:47;;;;;;;0.45;0.30;;;24.50;99.90;;;;;;5069844;28;20416;-80
2022/08/03 09:00:13;;;;;;;0.25;0.25;;;24.60;99.90;;;;;;5086603;28;20106;-80
2022/08/03 09:02:41;;;;;;;0.00;0.00;;;24.70;99.90;;;;;;5086474;28;20048;-80
2022/08/03 09:05:10;;;;;;;0.40;0.40;;;24.80;99.90;;;;;;5069306;28;20045;-80
2022/08/03 09:07:36;;;;;;;0.40;0.17;;;24.90;99.90;;;;;;5069867;28;20507;-80
2022/08/03 09:10:02;;;;;;;17.63;0.93;;;25.00;99.90;;;;;;5086777;28;20048;-80
2022/08/03 09:12:28;;;;;;;0.17;0.17;;;25.00;99.90;;;;;;5069196;28;20055;-80
2022/08/03 09:14:54;;;;;;;0.45;0.40;;;25.10;99.90;;;;;;5069433;28;20052;-80
2022/08/03 09:17:20;;;;;;;0.20;0.10;;;25.20;99.90;;;;;;5053645;28;20084;-81
2022/08/03 09:20:05;;;;;;;1.00;0.28;;;25.30;99.90;;;;;;5086995;28;20051;-80
2022/08/03 09:22:32;;;;;;;0.57;0.15;;;25.40;99.90;;;;;;5087149;28;20041;-80
2022/08/03 09:25:04;;;;;;;0.50;0.50;;;25.50;99.90;;;;;;5086854;28;20124;-80
2022/08/03 09:27:42;;;;;;;0.00;0.00;;;25.60;99.90;;;;;;5086489;28;20163;-80
2022/08/03 09:30:18;;;;;;;0.00;0.00;;;25.70;99.90;;;;;;5086557;28;20084;-80
2022/08/03 09:32:45;;;;;;;1.08;0.13;;;25.70;99.90;;;;;;5086948;28;20174;-81
2022/08/03 09:35:12;;;;;;;0.00;0.00;;;25.80;99.90;;;;;;5086832;28;20048;-81
2022/08/03 09:37:38;;;;;;;3.03;0.52;;;25.90;99.90;;;;;;5086718;28;20056;-81
2022/08/03 09:40:04;;;;;;;0.10;0.00;;;26.00;99.90;;;;;;5069434;28;20087;-80
2022/08/03 09:42:30;;;;;;;3.38;0.68;;;26.00;99.90;;;;;;5086348;28;20045;-80
2022/08/03 09:44:56;;;;;;;0.00;0.00;;;26.10;99.90;;;;;;5086968;28;20507;-81
2022/08/03 09:47:36;;;;;;;1.17;0.75;;;26.20;99.90;;;;;;5086579;28;20052;-81
2022/08/03 09:50:05;;;;;;;4.50;0.55;;;26.40;99.90;;;;;;5069787;28;20061;-81
2022/08/03 09:52:40;;;;;;;0.00;0.00;;;26.50;99.90;;;;;;5086512;28;20124;-81
2022/08/03 09:55:11;;;;;;;0.05;0.00;;;26.60;99.90;;;;;;5087026;28;20044;-81
2022/08/03 09:57:39;;;;;;;0.00;0.00;;;26.80;99.90;;;;;;5086441;28;20082;-80
2022/08/03 10:00:23;;;;;;;0.00;0.00;;;26.90;99.90;;;;;;5069490;28;20048;-80
2022/08/03 10:03:02;;;;;;;0.03;0.00;;;27.10;99.90;;;;;;5086028;28;20404;-80
2022/08/03 10:05:32;;;;;;;0.25;0.25;;;27.10;99.90;;;;;;5086318;28;20052;-81
2022/08/03 10:07:57;;;;;;;0.00;0.00;;;27.20;99.90;;;;;;5086721;28;20049;-80
2022/08/03 10:10:23;;;;;;;0.00;0.00;;;27.30;99.90;;;;;;5088161;28;20053;-80
2022/08/03 10:12:50;;;;;;;0.15;0.15;;;27.50;99.90;;;;;;5073225;28;20061;-80
2022/08/03 10:15:16;;;;;;;0.00;0.00;;;27.60;99.90;;;;;;5089994;28;20087;-80
2022/08/03 10:17:41;;;;;;;0.88;0.30;;;27.70;99.90;;;;;;5089353;28;20449;-80
2022/08/03 10:20:08;;;;;;;0.32;0.28;;;27.70;99.90;;;;;;5089819;28;20045;-80
2022/08/03 10:22:36;;;;;;;1.10;0.20;;;27.90;99.90;;;;;;5072912;28;20049;-80
2022/08/03 10:25:11;;;;;;;0.00;0.00;;;28.00;99.90;;;;;;5072929;28;20052;-80
2022/08/03 10:27:45;;;;;;;0.32;0.00;;;28.10;99.90;;;;;;5072321;28;20040;-81
2022/08/03 10:30:11;;;;;;;0.30;0.10;;;28.20;99.90;;;;;;5089685;28;20489;-81
2022/08/03 10:33:00;;;;;;;0.03;0.00;;;28.30;99.60;;;;;;5072443;28;20093;-81
2022/08/03 10:35:28;;;;;;;1.20;0.55;;;28.40;98.70;;;;;;5089706;28;20045;-81
2022/08/03 10:38:00;;;;;;;0.00;0.00;;;28.60;98.90;;;;;;5073066;28;20110;-81
2022/08/03 10:40:29;;;;;;;0.75;0.30;;;28.70;98.40;;;;;;5089503;28;20127;-80
2022/08/03 10:42:58;;;;;;;0.10;0.10;;;28.80;97.40;;;;;;5072602;28;20047;-81
2022/08/03 10:45:26;;;;;;;0.00;0.00;;;28.90;96.60;;;;;;5089643;28;20037;-81
2022/08/03 10:47:54;;;;;;;0.00;0.00;;;28.90;96.60;;;;;;5072764;28;20503;-81
2022/08/03 10:50:22;;;;;;;0.00;0.00;;;29.00;95.60;;;;;;5088760;28;20041;-81
2022/08/03 10:52:58;;;;;;;0.38;0.05;;;29.10;95.10;;;;;;5089371;28;20037;-82
2022/08/03 10:58:48;;;;;;;0.55;0.10;;;29.20;94.00;;;;;;5089652;28;20057;-81
2022/08/03 11:01:16;;;;;;;0.10;0.10;;;29.20;94.70;;;;;;5089222;28;20056;-81
2022/08/03 11:03:53;;;;;;;0.15;0.05;;;29.20;94.00;;;;;;5089040;28;20492;-81
2022/08/03 11:06:24;;;;;;;1.02;0.20;;;29.30;94.50;;;;;;5088764;28;20132;-81
2022/08/03 11:09:09;;;;;;;0.30;0.00;;;29.50;95.50;;;;;;5072590;28;20131;-81
2022/08/03 11:11:36;;;;;;;2.20;0.40;;;29.70;94.80;;;;;;5071777;28;20045;-81
2022/08/03 11:14:08;;;;;;;1.17;0.38;;;29.70;93.50;;;;;;5089480;28;20067;-81
2022/08/03 11:16:36;;;;;;;0.20;0.20;;;29.80;93.70;;;;;;5088805;28;20041;-82
2022/08/03 11:19:10;;;;;;;1.65;0.70;;;30.10;94.20;;;;;;5055690;28;20087;-82
2022/08/03 11:21:48;;;;;;;0.45;0.32;;;30.10;93.10;;;;;;5088049;28;20118;-82
2022/08/03 11:24:36;;;;;;;0.10;0.10;;;30.10;92.80;;;;;;5072098;28;20140;-81
2022/08/03 11:27:22;;;;;;;0.10;0.10;;;30.20;92.60;;;;;;5071645;28;20057;-81
2022/08/03 11:30:12;;;;;;;0.30;0.20;;;30.20;92.40;;;;;;5088877;28;20052;-81
2022/08/03 11:32:44;;;;;;;0.20;0.10;;;30.30;92.20;;;;;;5071039;28;20077;-82
2022/08/03 11:35:22;;;;;;;1.55;0.32;;;30.40;91.90;;;;;;5088788;28;20422;-82
2022/08/03 11:37:56;;;;;;;0.30;0.30;;;30.40;90.30;;;;;;5088133;28;20049;-81
2022/08/03 11:40:46;;;;;;;0.20;0.15;;;30.40;90.30;;;;;;5088456;28;20041;-81
2022/08/03 11:43:21;;;;;;;1.17;0.30;;;30.60;90.40;;;;;;5071725;28;20071;-81
2022/08/03 11:45:57;;;;;;;0.00;0.00;;;30.70;88.60;;;;;;5088208;28;20049;-81
2022/08/03 11:48:37;;;;;;;0.00;0.00;;;30.70;86.70;;;;;;5088329;28;20481;-82
2022/08/03 11:51:05;;;;;;;0.00;0.00;;;30.80;86.90;;;;;;5070675;28;20063;-81
2022/08/03 11:53:31;;;;;;;0.00;0.00;;;30.90;88.10;;;;;;5089041;28;20045;-81
2022/08/03 11:56:01;;;;;;;1.35;0.28;;;31.00;89.00;;;;;;5071190;28;20060;-82
2022/08/03 11:58:28;;;;;;;1.00;0.30;;;31.10;84.40;;;;;;5087845;28;20420;-82
2022/08/03 12:01:03;;;;;;;0.60;0.20;;;31.00;85.10;;;;;;5087866;28;20131;-82
2022/08/03 12:03:32;;;;;;;0.00;0.00;;;31.00;83.90;;;;;;5087990;28;20045;-82
2022/08/03 12:06:00;;;;;;;0.10;0.03;;;31.10;85.30;;;;;;5087668;28;20056;-82
2022/08/03 12:08:26;;;;;;;1.05;0.30;;;31.10;82.20;;;;;;5070951;28;20049;-82
2022/08/03 12:10:52;;;;;;;0.00;0.00;;;31.10;82.60;;;;;;5070360;28;20055;-82
2022/08/03 12:13:19;;;;;;;0.65;0.15;;;31.10;83.20;;;;;;5070549;28;20570;-82
2022/08/03 12:15:54;;;;;;;0.05;0.05;;;31.30;83.20;;;;;;5070665;28;20462;-82
2022/08/03 12:18:20;;;;;;;0.10;0.10;;;31.40;80.30;;;;;;5055175;28;20493;-82
2022/08/03 12:20:48;;;;;;;0.52;0.45;;;31.30;78.70;;;;;;5070710;28;20048;-81
2022/08/03 12:23:14;;;;;;;0.05;0.05;;;31.40;80.70;;;;;;5087723;28;20067;-82
2022/08/03 12:25:42;;;;;;;1.13;0.25;;;31.50;78.30;;;;;;5087663;28;20049;-81
2022/08/03 12:28:21;;;;;;;8.95;0.57;;;31.50;77.50;;;;;;5087193;28;20086;-82
2022/08/03 12:30:49;;;;;;;0.00;0.00;;;31.50;78.50;;;;;;5070431;28;20040;-81
2022/08/03 12:33:24;;;;;;;0.00;0.00;;;31.50;74.70;;;;;;5086344;28;20503;-81
2022/08/03 12:36:06;;;;;;;0.10;0.10;;;31.60;78.70;;;;;;5070343;28;20052;-82
2022/08/03 12:38:34;;;;;;;2.75;0.22;;;31.70;77.40;;;;;;5087828;28;20055;-82
2022/08/03 12:41:07;;;;;;;0.00;0.00;;;31.80;77.20;;;;;;5053946;28;20063;-82
2022/08/03 12:43:33;;;;;;;0.00;0.00;;;31.90;75.70;;;;;;5087795;28;20132;-82
2022/08/03 12:46:10;;;;;;;0.00;0.00;;;31.90;76.60;;;;;;5070129;28;20523;-82
2022/08/03 12:48:36;;;;;;;0.00;0.00;;;31.90;72.50;;;;;;5087469;28;20047;-82
2022/08/03 12:51:09;;;;;;;0.35;0.25;;;31.90;75.10;;;;;;5087248;28;20048;-82
2022/08/03 12:53:36;;;;;;;0.40;0.10;;;31.90;72.40;;;;;;5087264;28;20041;-82
2022/08/03 12:56:03;;;;;;;1.90;0.60;;;31.90;71.90;;;;;;5086852;28;20055;-82
2022/08/03 12:58:34;;;;;;;0.05;0.00;;;31.90;71.30;;;;;;5087033;28;20049;-82
2022/08/03 13:01:01;;;;;;;0.08;0.00;;;31.90;72.50;;;;;;5087119;28;20084;-82
2022/08/03 13:03:26;;;;;;;0.08;0.00;;;31.90;71.80;;;;;;5087227;28;20044;-82
2022/08/03 13:05:52;;;;;;;1.95;0.68;;;32.00;73.70;;;;;;5087432;28;20079;-82